Glendale/Luke AFB, Arizona
Current Conditions -  °F | °C
As of 1:58 PM on Thursday 18 Dec 2014 (Local Time) from KLUF Reporting Station
Clear Clear  
Wind Chill: 59°   Ceiling: Unl
Heat Index: 59°   Visibility: 10mi
Dew Point: 43°   Wind: 5mph
Humidity: 56%   Direction: 340°NNW
Pressure: 30.08"   Gusts: NA
Location:  33.53°N, 112.38°W
Report Text: KLUF 182058Z AUTO 34004KT 10SM CLR 15/06 A3008 RMK AO2 SLP185 T01510063 57023 $
Loading
Personal Weather Stations






























Interactive Weather Map New forecast layout! Learn more

10-Day Weather Forecast

Advertisements
Track Severe Weather on mobile